sensor_id;sensor_type;location;lat;lon;timestamp;pressure;altitude;pressure_sealevel;temperature;humidity
19108;BME280;9686;48.832;9.126;2022-10-15T00:00:48;97600.75;;;15.20;100.00
19108;BME280;9686;48.832;9.126;2022-10-15T00:03:14;97593.75;;;15.20;100.00
19108;BME280;9686;48.832;9.126;2022-10-15T00:05:40;97590.97;;;15.25;100.00
19108;BME280;9686;48.832;9.126;2022-10-15T00:08:06;97592.50;;;15.30;100.00
19108;BME280;9686;48.832;9.126;2022-10-15T00:10:33;97585.59;;;15.28;100.00
19108;BME280;9686;48.832;9.126;2022-10-15T00:12:59;97575.19;;;15.25;100.00
19108;BME280;9686;48.832;9.126;2022-10-15T00:15:24;97583.94;;;15.25;100.00
19108;BME280;9686;48.832;9.126;2022-10-15T00:17:49;97583.03;;;15.26;100.00
19108;BME280;9686;48.832;9.126;2022-10-15T00:20:15;97582.22;;;15.24;100.00
19108;BME280;9686;48.832;9.126;2022-10-15T00:22:40;97583.25;;;15.20;100.00
19108;BME280;9686;48.832;9.126;2022-10-15T00:25:06;97589.31;;;15.22;100.00
19108;BME280;9686;48.832;9.126;2022-10-15T00:27:33;97595.41;;;15.23;100.00
19108;BME280;9686;48.832;9.126;2022-10-15T00:29:58;97586.41;;;15.30;100.00
19108;BME280;9686;48.832;9.126;2022-10-15T00:32:25;97581.03;;;15.33;100.00
19108;BME280;9686;48.832;9.126;2022-10-15T00:34:50;97580.13;;;15.34;100.00
19108;BME280;9686;48.832;9.126;2022-10-15T00:37:15;97585.44;;;15.32;100.00
19108;BME280;9686;48.832;9.126;2022-10-15T00:39:41;97577.31;;;15.40;100.00
19108;BME280;9686;48.832;9.126;2022-10-15T00:42:09;97572.06;;;15.40;100.00
19108;BME280;9686;48.832;9.126;2022-10-15T00:45:10;97579.19;;;15.36;100.00
19108;BME280;9686;48.832;9.126;2022-10-15T00:47:45;97573.06;;;15.36;100.00
19108;BME280;9686;48.832;9.126;2022-10-15T00:50:16;97573.59;;;15.46;100.00
19108;BME280;9686;48.832;9.126;2022-10-15T00:52:48;97572.06;;;15.40;100.00
19108;BME280;9686;48.832;9.126;2022-10-15T00:55:24;97566.47;;;15.49;100.00
19108;BME280;9686;48.832;9.126;2022-10-15T00:57:51;97568.41;;;15.44;100.00
19108;BME280;9686;48.832;9.126;2022-10-15T01:00:17;97557.84;;;15.46;100.00
19108;BME280;9686;48.832;9.126;2022-10-15T01:02:44;97557.66;;;15.50;100.00
19108;BME280;9686;48.832;9.126;2022-10-15T01:05:10;97557.84;;;15.46;100.00
19108;BME280;9686;48.832;9.126;2022-10-15T01:07:36;97555.03;;;15.50;100.00
19108;BME280;9686;48.832;9.126;2022-10-15T01:10:04;97550.63;;;15.51;100.00
19108;BME280;9686;48.832;9.126;2022-10-15T01:15:38;97545.44;;;15.49;100.00
19108;BME280;9686;48.832;9.126;2022-10-15T01:18:45;97539.97;;;15.55;100.00
19108;BME280;9686;48.832;9.126;2022-10-15T01:21:23;97540.75;;;15.57;100.00
19108;BME280;9686;48.832;9.126;2022-10-15T01:26:56;97537.09;;;15.63;100.00
19108;BME280;9686;48.832;9.126;2022-10-15T01:29:50;97541.66;;;15.56;100.00
19108;BME280;9686;48.832;9.126;2022-10-15T01:32:37;97536.25;;;15.62;100.00
19108;BME280;9686;48.832;9.126;2022-10-15T01:38:00;97534.31;;;15.67;100.00
19108;BME280;9686;48.832;9.126;2022-10-15T01:40:34;97536.13;;;15.65;100.00
19108;BME280;9686;48.832;9.126;2022-10-15T01:43:08;97529.78;;;15.71;100.00
19108;BME280;9686;48.832;9.126;2022-10-15T01:45:39;97532.59;;;15.66;100.00
19108;BME280;9686;48.832;9.126;2022-10-15T01:48:10;97532.47;;;15.69;100.00
19108;BME280;9686;48.832;9.126;2022-10-15T01:50:40;97528.06;;;15.70;100.00
19108;BME280;9686;48.832;9.126;2022-10-15T01:53:10;97520.06;;;15.73;100.00
19108;BME280;9686;48.832;9.126;2022-10-15T01:55:36;97521.22;;;15.66;100.00
19108;BME280;9686;48.832;9.126;2022-10-15T01:58:03;97524.41;;;15.74;100.00
19108;BME280;9686;48.832;9.126;2022-10-15T02:00:29;97521.91;;;15.71;100.00
19108;BME280;9686;48.832;9.126;2022-10-15T02:03:01;97524.34;;;15.76;100.00
19108;BME280;9686;48.832;9.126;2022-10-15T02:05:34;97529.66;;;15.74;100.00
19108;BME280;9686;48.832;9.126;2022-10-15T02:18:49;97526.84;;;15.79;100.00
19108;BME280;9686;48.832;9.126;2022-10-15T02:21:23;97528.06;;;15.70;100.00
19108;BME280;9686;48.832;9.126;2022-10-15T02:23:56;97534.00;;;15.75;100.00
19108;BME280;9686;48.832;9.126;2022-10-15T02:26:27;97541.22;;;15.70;100.00
19108;BME280;9686;48.832;9.126;2022-10-15T02:28:56;97547.19;;;15.73;100.00
19108;BME280;9686;48.832;9.126;2022-10-15T02:31:24;97543.03;;;15.68;100.00
19108;BME280;9686;48.832;9.126;2022-10-15T02:33:54;97551.03;;;15.65;100.00
19108;BME280;9686;48.832;9.126;2022-10-15T02:36:22;97552.94;;;15.61;100.00
19108;BME280;9686;48.832;9.126;2022-10-15T03:02:49;97567.84;;;15.59;100.00
19108;BME280;9686;48.832;9.126;2022-10-15T03:05:15;97574.63;;;15.66;100.00
19108;BME280;9686;48.832;9.126;2022-10-15T03:07:40;97573.03;;;15.62;100.00
19108;BME280;9686;48.832;9.126;2022-10-15T03:10:06;97580.16;;;15.57;100.00
19108;BME280;9686;48.832;9.126;2022-10-15T03:12:31;97573.13;;;15.59;100.00
19108;BME280;9686;48.832;9.126;2022-10-15T03:14:57;97573.97;;;15.60;100.00
19108;BME280;9686;48.832;9.126;2022-10-15T03:17:22;97570.34;;;15.64;100.00
19108;BME280;9686;48.832;9.126;2022-10-15T03:19:47;97571.19;;;15.64;100.00
19108;BME280;9686;48.832;9.126;2022-10-15T03:22:13;97573.13;;;15.59;100.00
19108;BME280;9686;48.832;9.126;2022-10-15T03:24:38;97574.81;;;15.62;100.00
19108;BME280;9686;48.832;9.126;2022-10-15T03:27:03;97577.38;;;15.63;100.00
19108;BME280;9686;48.832;9.126;2022-10-15T03:29:29;97581.59;;;15.67;100.00
19108;BME280;9686;48.832;9.126;2022-10-15T03:31:54;97578.13;;;15.67;100.00
19108;BME280;9686;48.832;9.126;2022-10-15T03:34:19;97586.63;;;15.73;100.00
19108;BME280;9686;48.832;9.126;2022-10-15T03:36:45;97585.72;;;15.75;100.00
19108;BME280;9686;48.832;9.126;2022-10-15T03:39:11;97588.44;;;15.71;100.00
19108;BME280;9686;48.832;9.126;2022-10-15T03:41:37;97587.34;;;15.77;100.00
19108;BME280;9686;48.832;9.126;2022-10-15T03:44:04;97589.19;;;15.75;100.00
19108;BME280;9686;48.832;9.126;2022-10-15T03:46:29;97589.75;;;15.83;100.00
19108;BME280;9686;48.832;9.126;2022-10-15T03:48:57;97593.41;;;15.79;100.00
19108;BME280;9686;48.832;9.126;2022-10-15T03:51:25;97596.09;;;15.78;100.00
19108;BME280;9686;48.832;9.126;2022-10-15T03:53:57;97599.88;;;15.70;100.00
19108;BME280;9686;48.832;9.126;2022-10-15T03:56:34;97607.59;;;15.75;100.00
19108;BME280;9686;48.832;9.126;2022-10-15T03:59:10;97613.69;;;15.76;100.00
19108;BME280;9686;48.832;9.126;2022-10-15T04:01:49;97605.59;;;15.82;100.00
19108;BME280;9686;48.832;9.126;2022-10-15T04:04:32;97617.19;;;15.76;100.00
19108;BME280;9686;48.832;9.126;2022-10-15T04:07:02;97611.88;;;15.78;100.00
19108;BME280;9686;48.832;9.126;2022-10-15T04:09:31;97610.97;;;15.79;100.00
19108;BME280;9686;48.832;9.126;2022-10-15T04:12:24;97620.78;;;15.73;100.00
19108;BME280;9686;48.832;9.126;2022-10-15T04:14:54;97627.75;;;15.75;100.00
19108;BME280;9686;48.832;9.126;2022-10-15T04:17:49;97619.75;;;15.78;100.00
19108;BME280;9686;48.832;9.126;2022-10-15T04:20:23;97633.63;;;15.81;100.00
19108;BME280;9686;48.832;9.126;2022-10-15T04:34:33;97635.53;;;15.78;100.00
19108;BME280;9686;48.832;9.126;2022-10-15T04:40:47;97638.03;;;15.81;100.00
19108;BME280;9686;48.832;9.126;2022-10-15T04:43:33;97637.13;;;15.82;100.00
19108;BME280;9686;48.832;9.126;2022-10-15T04:46:12;97640.59;;;15.82;100.00
19108;BME280;9686;48.832;9.126;2022-10-15T04:49:03;97644.22;;;15.80;100.00
19108;BME280;9686;48.832;9.126;2022-10-15T04:51:34;97644.22;;;15.80;100.00
19108;BME280;9686;48.832;9.126;2022-10-15T04:54:02;97652.84;;;15.83;100.00
19108;BME280;9686;48.832;9.126;2022-10-15T04:56:30;97659.19;;;15.78;100.00
19108;BME280;9686;48.832;9.126;2022-10-15T04:59:21;97661.00;;;15.76;100.00
19108;BME280;9686;48.832;9.126;2022-10-15T05:02:15;97663.56;;;15.77;100.00
19108;BME280;9686;48.832;9.126;2022-10-15T05:07:38;97651.41;;;15.75;100.00
19108;BME280;9686;48.832;9.126;2022-10-15T05:30:51;97695.34;;;15.71;100.00
19108;BME280;9686;48.832;9.126;2022-10-15T05:34:15;97697.03;;;15.72;100.00
19108;BME280;9686;48.832;9.126;2022-10-15T05:36:47;97692.69;;;15.71;100.00
19108;BME280;9686;48.832;9.126;2022-10-15T05:39:18;97704.34;;;15.89;100.00
19108;BME280;9686;48.832;9.126;2022-10-15T05:41:52;97703.84;;;15.78;100.00
19108;BME280;9686;48.832;9.126;2022-10-15T05:44:20;97706.59;;;15.75;100.00
19108;BME280;9686;48.832;9.126;2022-10-15T05:46:49;97708.31;;;15.76;100.00
19108;BME280;9686;48.832;9.126;2022-10-15T05:54:25;97698.38;;;15.84;100.00
19108;BME280;9686;48.832;9.126;2022-10-15T05:56:53;97699.69;;;15.72;100.00
19108;BME280;9686;48.832;9.126;2022-10-15T10:44:42;97845.72;;;18.14;100.00
19108;BME280;9686;48.832;9.126;2022-10-15T10:47:16;97843.13;;;18.13;100.00
19108;BME280;9686;48.832;9.126;2022-10-15T10:49:42;97840.44;;;18.14;100.00
19108;BME280;9686;48.832;9.126;2022-10-15T10:54:58;97836.56;;;18.23;100.00
19108;BME280;9686;48.832;9.126;2022-10-15T10:57:52;97840.44;;;18.35;100.00
19108;BME280;9686;48.832;9.126;2022-10-15T11:02:50;97830.09;;;18.30;100.00
19108;BME280;9686;48.832;9.126;2022-10-15T11:05:27;97812.53;;;18.29;100.00
19108;BME280;9686;48.832;9.126;2022-10-15T11:10:57;97819.06;;;18.41;100.00
19108;BME280;9686;48.832;9.126;2022-10-15T11:16:16;97805.06;;;18.59;100.00
19108;BME280;9686;48.832;9.126;2022-10-15T11:19:08;97801.38;;;18.63;100.00
19108;BME280;9686;48.832;9.126;2022-10-15T11:21:46;97798.53;;;18.68;100.00
19108;BME280;9686;48.832;9.126;2022-10-15T11:24:24;97796.13;;;18.82;100.00
19108;BME280;9686;48.832;9.126;2022-10-15T11:27:14;97798.41;;;18.90;100.00
19108;BME280;9686;48.832;9.126;2022-10-15T11:29:57;97784.50;;;18.86;100.00
19108;BME280;9686;48.832;9.126;2022-10-15T11:32:40;97776.34;;;18.91;100.00
19108;BME280;9686;48.832;9.126;2022-10-15T11:35:18;97768.66;;;18.86;100.00
19108;BME280;9686;48.832;9.126;2022-10-15T11:43:51;97757.22;;;18.86;100.00
19108;BME280;9686;48.832;9.126;2022-10-15T11:49:29;97757.78;;;19.11;100.00
19108;BME280;9686;48.832;9.126;2022-10-15T11:57:14;97757.34;;;19.20;100.00
19108;BME280;9686;48.832;9.126;2022-10-15T12:02:40;97738.50;;;19.45;100.00
19108;BME280;9686;48.832;9.126;2022-10-15T12:08:17;97740.66;;;19.56;100.00
19108;BME280;9686;48.832;9.126;2022-10-15T12:17:02;97730.34;;;19.32;100.00
19108;BME280;9686;48.832;9.126;2022-10-15T12:19:59;97735.47;;;19.35;100.00
19108;BME280;9686;48.832;9.126;2022-10-15T12:22:59;97725.69;;;19.01;100.00
19108;BME280;9686;48.832;9.126;2022-10-15T12:27:59;97738.59;;;18.89;100.00
19108;BME280;9686;48.832;9.126;2022-10-15T12:30:29;97732.66;;;18.84;100.00
19108;BME280;9686;48.832;9.126;2022-10-15T12:32:59;97735.53;;;18.79;100.00
19108;BME280;9686;48.832;9.126;2022-10-15T12:35:36;97746.16;;;18.77;100.00
19108;BME280;9686;48.832;9.126;2022-10-15T12:38:36;97738.78;;;18.65;100.00
19108;BME280;9686;48.832;9.126;2022-10-15T12:41:12;97743.47;;;18.59;100.00
19108;BME280;9686;48.832;9.126;2022-10-15T12:43:42;97744.88;;;18.47;100.00
19108;BME280;9686;48.832;9.126;2022-10-15T12:46:09;97745.28;;;18.38;100.00
19108;BME280;9686;48.832;9.126;2022-10-15T12:53:42;97750.00;;;18.11;100.00
19108;BME280;9686;48.832;9.126;2022-10-15T12:58:40;97747.50;;;18.08;100.00
19108;BME280;9686;48.832;9.126;2022-10-15T13:03:44;97735.91;;;18.12;100.00
19108;BME280;9686;48.832;9.126;2022-10-15T13:08:50;97733.13;;;18.15;100.00
19108;BME280;9686;48.832;9.126;2022-10-15T13:11:23;97730.28;;;18.19;100.00
19108;BME280;9686;48.832;9.126;2022-10-15T13:13:51;97732.91;;;18.19;100.00
19108;BME280;9686;48.832;9.126;2022-10-15T13:16:20;97728.38;;;18.23;100.00
19108;BME280;9686;48.832;9.126;2022-10-15T13:18:49;97745.00;;;18.25;100.00
19108;BME280;9686;48.832;9.126;2022-10-15T13:21:15;97744.06;;;18.26;100.00
19108;BME280;9686;48.832;9.126;2022-10-15T13:23:47;97742.75;;;18.16;100.00
19108;BME280;9686;48.832;9.126;2022-10-15T13:26:18;97738.66;;;18.09;100.00
19108;BME280;9686;48.832;9.126;2022-10-15T13:28:44;97754.56;;;18.07;100.00
19108;BME280;9686;48.832;9.126;2022-10-15T13:31:20;97752.84;;;17.86;100.00
19108;BME280;9686;48.832;9.126;2022-10-15T13:33:48;97755.38;;;17.67;100.00
19108;BME280;9686;48.832;9.126;2022-10-15T13:36:20;97762.59;;;17.62;100.00
19108;BME280;9686;48.832;9.126;2022-10-15T13:38:53;97762.81;;;17.57;100.00
19108;BME280;9686;48.832;9.126;2022-10-15T13:41:23;97762.28;;;17.49;100.00
19108;BME280;9686;48.832;9.126;2022-10-15T13:43:50;97766.56;;;17.52;100.00
19108;BME280;9686;48.832;9.126;2022-10-15T13:46:16;97765.56;;;17.54;100.00
19108;BME280;9686;48.832;9.126;2022-10-15T13:48:41;97769.13;;;17.53;100.00
19108;BME280;9686;48.832;9.126;2022-10-15T13:51:09;97777.81;;;17.55;100.00
19108;BME280;9686;48.832;9.126;2022-10-15T13:53:39;97769.84;;;17.57;100.00
19108;BME280;9686;48.832;9.126;2022-10-15T13:56:25;97767.41;;;17.52;100.00
19108;BME280;9686;48.832;9.126;2022-10-15T13:58:52;97765.69;;;17.51;100.00
19108;BME280;9686;48.832;9.126;2022-10-15T14:01:25;97769.00;;;17.56;100.00
19108;BME280;9686;48.832;9.126;2022-10-15T14:03:59;97771.97;;;17.71;100.00
19108;BME280;9686;48.832;9.126;2022-10-15T14:06:35;97773.47;;;17.76;100.00
19108;BME280;9686;48.832;9.126;2022-10-15T14:09:19;97780.81;;;17.68;100.00
19108;BME280;9686;48.832;9.126;2022-10-15T14:11:50;97773.16;;;17.62;100.00
19108;BME280;9686;48.832;9.126;2022-10-15T14:16:56;97782.25;;;17.55;100.00
19108;BME280;9686;48.832;9.126;2022-10-15T14:19:23;97778.75;;;17.54;100.00
19108;BME280;9686;48.832;9.126;2022-10-15T14:21:54;97779.06;;;17.47;100.00
19108;BME280;9686;48.832;9.126;2022-10-15T14:24:37;97784.75;;;17.36;100.00
19108;BME280;9686;48.832;9.126;2022-10-15T14:27:31;97778.50;;;17.39;100.00
19108;BME280;9686;48.832;9.126;2022-10-15T14:29:58;97787.81;;;17.25;100.00
19108;BME280;9686;48.832;9.126;2022-10-15T14:34:58;97779.91;;;17.25;100.00
19108;BME280;9686;48.832;9.126;2022-10-15T14:37:37;97796.22;;;17.35;100.00
19108;BME280;9686;48.832;9.126;2022-10-15T14:42:32;97802.41;;;17.34;100.00
19108;BME280;9686;48.832;9.126;2022-10-15T14:45:10;97812.81;;;17.37;100.00
19108;BME280;9686;48.832;9.126;2022-10-15T14:47:35;97798.53;;;17.43;100.00
19108;BME280;9686;48.832;9.126;2022-10-15T14:50:01;97802.84;;;17.45;100.00
19108;BME280;9686;48.832;9.126;2022-10-15T14:52:28;97809.72;;;17.49;100.00
19108;BME280;9686;48.832;9.126;2022-10-15T14:55:13;97807.19;;;17.46;100.00
19108;BME280;9686;48.832;9.126;2022-10-15T14:57:42;97807.06;;;17.49;100.00
19108;BME280;9686;48.832;9.126;2022-10-15T15:00:31;97773.22;;;17.61;100.00
19108;BME280;9686;48.832;9.126;2022-10-15T15:02:59;97762.41;;;17.67;100.00
19108;BME280;9686;48.832;9.126;2022-10-15T15:05:27;97753.31;;;17.75;100.00
19108;BME280;9686;48.832;9.126;2022-10-15T15:07:53;97762.00;;;17.77;100.00
19108;BME280;9686;48.832;9.126;2022-10-15T15:10:22;97758.38;;;17.80;100.00
19108;BME280;9686;48.832;9.126;2022-10-15T15:12:50;97770.00;;;17.76;100.00
19108;BME280;9686;48.832;9.126;2022-10-15T15:15:18;97767.94;;;17.82;100.00
19108;BME280;9686;48.832;9.126;2022-10-15T15:17:44;97767.94;;;17.82;100.00
19108;BME280;9686;48.832;9.126;2022-10-15T15:20:10;97763.00;;;17.95;100.00
19108;BME280;9686;48.832;9.126;2022-10-15T15:22:36;97749.28;;;18.07;100.00
19108;BME280;9686;48.832;9.126;2022-10-15T15:25:13;97745.00;;;18.05;100.00
19108;BME280;9686;48.832;9.126;2022-10-15T15:27:38;97740.44;;;18.08;100.00
19108;BME280;9686;48.832;9.126;2022-10-15T15:30:05;97747.09;;;18.17;100.00
19108;BME280;9686;48.832;9.126;2022-10-15T15:32:31;97732.34;;;18.13;100.00
19108;BME280;9686;48.832;9.126;2022-10-15T15:34:57;97747.38;;;18.11;100.00
19108;BME280;9686;48.832;9.126;2022-10-15T15:37:23;97750.09;;;18.09;100.00
19108;BME280;9686;48.832;9.126;2022-10-15T15:39:49;97736.25;;;18.43;100.00
19108;BME280;9686;48.832;9.126;2022-10-15T15:42:17;97732.06;;;18.58;100.00
19108;BME280;9686;48.832;9.126;2022-10-15T15:44:43;97727.63;;;18.59;100.00
19108;BME280;9686;48.832;9.126;2022-10-15T15:47:09;97732.78;;;18.62;100.00
19108;BME280;9686;48.832;9.126;2022-10-15T15:49:35;97735.16;;;18.47;100.00
19108;BME280;9686;48.832;9.126;2022-10-15T15:52:01;97732.50;;;18.49;100.00
19108;BME280;9686;48.832;9.126;2022-10-15T15:54:26;97727.78;;;18.56;100.00
19108;BME280;9686;48.832;9.126;2022-10-15T15:56:51;97724.13;;;18.58;100.00
19108;BME280;9686;48.832;9.126;2022-10-15T15:59:17;97732.28;;;18.54;100.00
19108;BME280;9686;48.832;9.126;2022-10-15T16:01:44;97742.75;;;18.55;100.00
19108;BME280;9686;48.832;9.126;2022-10-15T16:04:10;97756.88;;;18.54;100.00
19108;BME280;9686;48.832;9.126;2022-10-15T16:06:37;97752.00;;;18.45;100.00
19108;BME280;9686;48.832;9.126;2022-10-15T16:09:02;97746.88;;;18.42;100.00
19108;BME280;9686;48.832;9.126;2022-10-15T16:11:29;97756.84;;;18.35;100.00
19108;BME280;9686;48.832;9.126;2022-10-15T16:13:55;97759.34;;;18.38;100.00
19108;BME280;9686;48.832;9.126;2022-10-15T16:16:20;97768.75;;;18.25;100.00
19108;BME280;9686;48.832;9.126;2022-10-15T16:18:45;97764.13;;;18.30;100.00
19108;BME280;9686;48.832;9.126;2022-10-15T16:21:11;97769.97;;;18.16;100.00
19108;BME280;9686;48.832;9.126;2022-10-15T16:23:36;97768.28;;;18.15;100.00
19108;BME280;9686;48.832;9.126;2022-10-15T16:26:01;97770.31;;;18.09;100.00
19108;BME280;9686;48.832;9.126;2022-10-15T16:28:27;97779.31;;;18.05;100.00
19108;BME280;9686;48.832;9.126;2022-10-15T16:30:52;97780.56;;;17.96;100.00
19108;BME280;9686;48.832;9.126;2022-10-15T16:33:18;97777.31;;;17.90;100.00
19108;BME280;9686;48.832;9.126;2022-10-15T16:35:43;97773.09;;;17.85;100.00
19108;BME280;9686;48.832;9.126;2022-10-15T16:38:08;97780.13;;;17.85;100.00
19108;BME280;9686;48.832;9.126;2022-10-15T16:40:34;97786.47;;;17.81;100.00
19108;BME280;9686;48.832;9.126;2022-10-15T16:42:59;97782.06;;;17.81;100.00
19108;BME280;9686;48.832;9.126;2022-10-15T16:45:24;97789.84;;;17.84;100.00
19108;BME280;9686;48.832;9.126;2022-10-15T16:47:50;97801.69;;;17.74;100.00
19108;BME280;9686;48.832;9.126;2022-10-15T16:50:15;97795.69;;;17.71;100.00
19108;BME280;9686;48.832;9.126;2022-10-15T16:52:40;97803.06;;;17.61;100.00
19108;BME280;9686;48.832;9.126;2022-10-15T16:55:06;97794.03;;;17.67;100.00
19108;BME280;9686;48.832;9.126;2022-10-15T16:57:32;97798.78;;;17.58;100.00
19108;BME280;9686;48.832;9.126;2022-10-15T16:59:57;97801.81;;;17.71;100.00
19108;BME280;9686;48.832;9.126;2022-10-15T17:02:23;97806.38;;;17.66;100.00
19108;BME280;9686;48.832;9.126;2022-10-15T17:04:48;97813.28;;;17.70;100.00
19108;BME280;9686;48.832;9.126;2022-10-15T17:07:14;97820.53;;;17.64;100.00
19108;BME280;9686;48.832;9.126;2022-10-15T17:09:39;97824.22;;;17.60;100.00
19108;BME280;9686;48.832;9.126;2022-10-15T17:12:05;97833.91;;;17.59;100.00
19108;BME280;9686;48.832;9.126;2022-10-15T17:14:30;97835.75;;;17.57;100.00
19108;BME280;9686;48.832;9.126;2022-10-15T17:16:55;97842.78;;;17.56;100.00
19108;BME280;9686;48.832;9.126;2022-10-15T17:19:23;97850.69;;;17.56;100.00
19108;BME280;9686;48.832;9.126;2022-10-15T17:21:50;97851.56;;;17.57;100.00
19108;BME280;9686;48.832;9.126;2022-10-15T17:24:16;97870.44;;;17.46;100.00
19108;BME280;9686;48.832;9.126;2022-10-15T17:26:44;97874.06;;;17.44;100.00
19108;BME280;9686;48.832;9.126;2022-10-15T17:29:12;97868.81;;;17.42;100.00
19108;BME280;9686;48.832;9.126;2022-10-15T17:31:40;97881.44;;;17.34;100.00
19108;BME280;9686;48.832;9.126;2022-10-15T17:34:08;97871.31;;;17.23;100.00
19108;BME280;9686;48.832;9.126;2022-10-15T17:36:39;97878.19;;;17.27;100.00
19108;BME280;9686;48.832;9.126;2022-10-15T17:39:10;97879.13;;;17.26;100.00
19108;BME280;9686;48.832;9.126;2022-10-15T17:41:36;97886.16;;;17.26;100.00
19108;BME280;9686;48.832;9.126;2022-10-15T17:44:01;97883.66;;;17.23;100.00
19108;BME280;9686;48.832;9.126;2022-10-15T17:46:27;97893.59;;;17.15;100.00
19108;BME280;9686;48.832;9.126;2022-10-15T17:48:54;97889.09;;;17.18;100.00
19108;BME280;9686;48.832;9.126;2022-10-15T17:51:21;97888.31;;;17.15;100.00
19108;BME280;9686;48.832;9.126;2022-10-15T17:53:47;97883.53;;;17.26;100.00
19108;BME280;9686;48.832;9.126;2022-10-15T17:56:17;97889.66;;;17.26;100.00
19108;BME280;9686;48.832;9.126;2022-10-15T17:58:42;97902.41;;;17.37;100.00
19108;BME280;9686;48.832;9.126;2022-10-15T18:01:15;97906.44;;;17.24;100.00
19108;BME280;9686;48.832;9.126;2022-10-15T18:03:41;97913.81;;;17.14;100.00
19108;BME280;9686;48.832;9.126;2022-10-15T18:06:08;97903.31;;;17.13;100.00
19108;BME280;9686;48.832;9.126;2022-10-15T18:08:34;97910.09;;;17.20;100.00
19108;BME280;9686;48.832;9.126;2022-10-15T18:11:00;97906.50;;;17.22;100.00
19108;BME280;9686;48.832;9.126;2022-10-15T18:13:25;97917.22;;;17.18;100.00
19108;BME280;9686;48.832;9.126;2022-10-15T18:15:53;97911.22;;;17.13;100.00
19108;BME280;9686;48.832;9.126;2022-10-15T18:18:18;97921.25;;;17.03;100.00
19108;BME280;9686;48.832;9.126;2022-10-15T18:20:44;97915.19;;;17.01;100.00
19108;BME280;9686;48.832;9.126;2022-10-15T18:23:17;97915.81;;;17.08;100.00
19108;BME280;9686;48.832;9.126;2022-10-15T18:25:43;97906.69;;;17.18;100.00
19108;BME280;9686;48.832;9.126;2022-10-15T18:28:10;97905.69;;;17.20;100.00
19108;BME280;9686;48.832;9.126;2022-10-15T18:30:36;97908.16;;;17.25;100.00
19108;BME280;9686;48.832;9.126;2022-10-15T18:33:01;97923.16;;;17.23;100.00
19108;BME280;9686;48.832;9.126;2022-10-15T18:35:27;97906.31;;;17.27;100.00
19108;BME280;9686;48.832;9.126;2022-10-15T18:37:52;97901.72;;;17.32;100.00
19108;BME280;9686;48.832;9.126;2022-10-15T18:40:17;97901.91;;;17.27;100.00
19108;BME280;9686;48.832;9.126;2022-10-15T18:42:43;97898.34;;;17.29;100.00
19108;BME280;9686;48.832;9.126;2022-10-15T18:45:08;97898.47;;;17.25;100.00
19108;BME280;9686;48.832;9.126;2022-10-15T18:47:34;97902.88;;;17.25;100.00
19108;BME280;9686;48.832;9.126;2022-10-15T18:49:59;97909.41;;;17.15;100.00
19108;BME280;9686;48.832;9.126;2022-10-15T18:52:25;97916.38;;;17.16;100.00
19108;BME280;9686;48.832;9.126;2022-10-15T18:54:50;97913.00;;;17.12;100.00
19108;BME280;9686;48.832;9.126;2022-10-15T18:57:15;97916.63;;;17.10;100.00
19108;BME280;9686;48.832;9.126;2022-10-15T18:59:41;97927.09;;;17.11;100.00
19108;BME280;9686;48.832;9.126;2022-10-15T19:02:08;97928.75;;;17.14;100.00
19108;BME280;9686;48.832;9.126;2022-10-15T19:04:34;97928.06;;;17.09;100.00
19108;BME280;9686;48.832;9.126;2022-10-15T19:06:59;97933.38;;;17.07;100.00
19108;BME280;9686;48.832;9.126;2022-10-15T19:09:28;97935.56;;;16.96;100.00
19108;BME280;9686;48.832;9.126;2022-10-15T19:11:55;97938.94;;;17.00;100.00
19108;BME280;9686;48.832;9.126;2022-10-15T19:14:22;97949.59;;;16.97;100.00
19108;BME280;9686;48.832;9.126;2022-10-15T19:16:48;97950.56;;;16.94;100.00
19108;BME280;9686;48.832;9.126;2022-10-15T19:19:16;97955.72;;;16.97;100.00
19108;BME280;9686;48.832;9.126;2022-10-15T19:21:43;97947.94;;;16.94;100.00
19108;BME280;9686;48.832;9.126;2022-10-15T19:24:09;97948.72;;;16.96;100.00
19108;BME280;9686;48.832;9.126;2022-10-15T19:26:34;97941.63;;;16.98;100.00
19108;BME280;9686;48.832;9.126;2022-10-15T19:29:00;97927.09;;;17.11;100.00
19108;BME280;9686;48.832;9.126;2022-10-15T19:31:28;97933.56;;;17.03;100.00
19108;BME280;9686;48.832;9.126;2022-10-15T19:33:54;97954.00;;;16.96;100.00
19108;BME280;9686;48.832;9.126;2022-10-15T19:36:27;97952.34;;;16.93;100.00
19108;BME280;9686;48.832;9.126;2022-10-15T19:38:53;97954.69;;;17.01;100.00
19108;BME280;9686;48.832;9.126;2022-10-15T19:41:19;97938.09;;;16.99;100.00
19108;BME280;9686;48.832;9.126;2022-10-15T19:43:44;97955.84;;;16.94;100.00
19108;BME280;9686;48.832;9.126;2022-10-15T19:46:10;97946.09;;;16.96;100.00
19108;BME280;9686;48.832;9.126;2022-10-15T19:48:35;97954.13;;;16.93;100.00
19108;BME280;9686;48.832;9.126;2022-10-15T19:51:02;97963.00;;;16.89;100.00
19108;BME280;9686;48.832;9.126;2022-10-15T19:53:28;97959.63;;;16.85;100.00
19108;BME280;9686;48.832;9.126;2022-10-15T19:55:56;97965.06;;;16.81;100.00
19108;BME280;9686;48.832;9.126;2022-10-15T19:58:23;97960.28;;;16.92;100.00
19108;BME280;9686;48.832;9.126;2022-10-15T20:00:50;97966.78;;;16.82;100.00
19108;BME280;9686;48.832;9.126;2022-10-15T20:03:15;97959.97;;;16.76;100.00
19108;BME280;9686;48.832;9.126;2022-10-15T20:05:42;97970.66;;;16.72;100.00
19108;BME280;9686;48.832;9.126;2022-10-15T20:08:08;97974.03;;;16.75;100.00
19108;BME280;9686;48.832;9.126;2022-10-15T20:10:34;97972.31;;;16.74;100.00
19108;BME280;9686;48.832;9.126;2022-10-15T20:13:00;97984.50;;;16.77;100.00
19108;BME280;9686;48.832;9.126;2022-10-15T20:15:26;97999.41;;;16.78;100.00
19108;BME280;9686;48.832;9.126;2022-10-15T20:17:51;98002.88;;;16.78;100.00
19108;BME280;9686;48.832;9.126;2022-10-15T20:20:16;98001.34;;;16.73;100.00
19108;BME280;9686;48.832;9.126;2022-10-15T20:22:41;98000.19;;;16.80;100.00
19108;BME280;9686;48.832;9.126;2022-10-15T20:25:07;98000.47;;;16.72;100.00
19108;BME280;9686;48.832;9.126;2022-10-15T20:27:33;98010.50;;;16.86;100.00